Time;durP1;ratioP1;P1;durP2;ratioP2;P2;SDS_P1;SDS_P2;PMS_P1;PMS_P2;Temp;Humidity;BMP_temperature;BMP_pressure;BME280_temperature;BME280_humidity;BME280_pressure;Samples;Min_cycle;Max_cycle;Signal;HPM_P1;HPM_P2
2023/04/14 00:00:55;;;;;;;201.00;187.30;;;5.50;33.50;;;;;;5033194;28;20221;-69
2023/04/14 00:03:21;;;;;;;170.37;156.40;;;5.50;33.40;;;;;;5033311;28;20174;-69
2023/04/14 00:05:46;;;;;;;152.60;140.57;;;5.50;31.50;;;;;;5033477;28;20183;-70
2023/04/14 00:08:11;;;;;;;215.70;200.97;;;5.50;33.40;;;;;;5033354;28;20258;-70
2023/04/14 00:10:37;;;;;;;155.43;142.93;;;5.50;32.60;;;;;;5033598;28;20709;-69
2023/04/14 00:13:03;;;;;;;225.67;211.40;;;5.60;31.30;;;;;;5032339;28;20206;-69
2023/04/14 00:15:28;;;;;;;234.67;220.03;;;5.50;30.90;;;;;;5033576;28;20185;-69
2023/04/14 00:17:54;;;;;;;279.33;263.20;;;5.50;31.10;;;;;;5033117;28;20241;-69
2023/04/14 00:20:19;;;;;;;322.43;301.97;;;5.50;31.40;;;;;;5033500;28;20193;-69
2023/04/14 00:22:45;;;;;;;172.03;159.43;;;5.40;31.00;;;;;;5033484;28;20627;-69
2023/04/14 00:25:10;;;;;;;146.90;135.40;;;5.50;31.80;;;;;;5033361;28;20447;-69
2023/04/14 00:27:36;;;;;;;287.90;269.87;;;5.60;30.60;;;;;;5033277;28;20182;-69
2023/04/14 00:30:01;;;;;;;271.53;253.87;;;5.60;30.40;;;;;;5033408;28;20181;-69
2023/04/14 00:32:27;;;;;;;220.90;206.70;;;5.60;32.00;;;;;;5033097;28;20252;-69
2023/04/14 00:34:52;;;;;;;222.07;207.80;;;5.70;31.70;;;;;;5031711;28;20226;-69
2023/04/14 00:37:18;;;;;;;283.87;267.63;;;5.70;31.90;;;;;;5032624;28;20602;-69
2023/04/14 00:39:43;;;;;;;183.17;169.87;;;5.70;31.40;;;;;;5031476;28;20187;-69
2023/04/14 00:42:09;;;;;;;230.53;216.50;;;5.70;32.80;;;;;;5032492;28;20209;-69
2023/04/14 00:44:34;;;;;;;184.70;171.43;;;5.70;32.50;;;;;;5032985;28;20186;-69
2023/04/14 00:47:01;;;;;;;258.97;243.80;;;5.70;33.00;;;;;;5031328;28;20178;-69
2023/04/14 00:49:27;;;;;;;353.10;329.87;;;5.80;32.50;;;;;;5032687;28;20690;-69
2023/04/14 00:51:53;;;;;;;166.63;153.47;;;5.80;32.40;;;;;;5032435;28;20596;-70
2023/04/14 00:54:19;;;;;;;241.53;226.50;;;5.80;32.10;;;;;;5032471;28;20425;-70
2023/04/14 00:56:46;;;;;;;225.10;210.50;;;5.80;31.70;;;;;;5032437;28;20425;-70
2023/04/14 00:59:12;;;;;;;280.00;263.20;;;5.90;31.70;;;;;;5032524;28;20421;-70
2023/04/14 01:01:39;;;;;;;222.60;207.87;;;5.90;31.20;;;;;;5031999;28;20962;-70
2023/04/14 01:04:05;;;;;;;269.60;252.27;;;5.90;31.10;;;;;;5032354;28;20474;-70
2023/04/14 01:06:31;;;;;;;183.63;169.57;;;5.80;30.90;;;;;;5032321;28;20413;-70
2023/04/14 01:08:58;;;;;;;217.20;202.87;;;5.80;31.60;;;;;;5031095;28;20421;-70
2023/04/14 01:11:50;;;;;;;134.33;122.70;;;5.80;31.40;;;;;;5032160;28;20785;-70
2023/04/14 01:14:34;;;;;;;161.90;149.43;;;5.80;29.90;;;;;;5032258;28;20420;-70
2023/04/14 01:17:10;;;;;;;207.60;193.77;;;5.70;30.00;;;;;;5032083;28;20417;-70
2023/04/14 01:20:04;;;;;;;205.17;191.90;;;5.70;29.60;;;;;;5032181;28;20412;-70
2023/04/14 01:22:32;;;;;;;190.50;175.77;;;5.80;30.30;;;;;;5031917;28;20539;-70
2023/04/14 01:25:44;;;;;;;199.30;185.73;;;5.80;29.70;;;;;;5032174;28;20409;-70
2023/04/14 01:28:13;;;;;;;194.10;179.63;;;5.90;29.30;;;;;;5009868;28;20430;-70
2023/04/14 01:31:07;;;;;;;250.47;234.13;;;5.80;29.20;;;;;;5009740;28;20413;-70
2023/04/14 01:33:37;;;;;;;286.23;267.27;;;6.00;29.00;;;;;;5026025;28;20429;-70
2023/04/14 01:36:07;;;;;;;116.77;105.37;;;6.00;29.00;;;;;;5030978;28;20422;-70
2023/04/14 01:38:35;;;;;;;151.63;139.60;;;6.00;28.70;;;;;;5031864;28;20443;-69
2023/04/14 01:41:06;;;;;;;121.63;110.30;;;6.00;29.10;;;;;;5030663;28;20471;-70
2023/04/14 01:43:36;;;;;;;169.57;155.27;;;5.90;28.90;;;;;;5031850;28;20393;-70
2023/04/14 01:46:06;;;;;;;133.00;120.47;;;5.90;28.90;;;;;;5031844;28;20418;-70
2023/04/14 01:48:32;;;;;;;154.87;142.43;;;5.90;28.90;;;;;;5032064;28;20893;-70
2023/04/14 01:50:59;;;;;;;271.80;254.40;;;5.90;29.00;;;;;;5033033;28;20429;-69
2023/04/14 01:53:56;;;;;;;182.00;168.33;;;5.80;28.90;;;;;;5029076;28;20434;-70
2023/04/14 01:56:23;;;;;;;140.83;129.13;;;5.70;29.60;;;;;;5018717;28;20497;-68
2023/04/14 01:58:50;;;;;;;273.03;252.53;;;5.60;30.40;;;;;;5016967;28;20492;-69
2023/04/14 02:01:16;;;;;;;205.52;191.55;;;5.60;30.00;;;;;;5032309;28;20624;-69
2023/04/14 02:03:43;;;;;;;207.40;193.87;;;5.60;30.30;;;;;;5036295;28;20194;-69
2023/04/14 02:06:11;;;;;;;219.13;203.20;;;5.50;30.00;;;;;;5036076;28;20421;-70
2023/04/14 02:08:40;;;;;;;280.37;260.27;;;5.50;30.10;;;;;;5034767;28;20444;-70
2023/04/14 02:11:06;;;;;;;308.13;288.73;;;5.40;31.60;;;;;;5036002;28;20533;-70
2023/04/14 02:13:33;;;;;;;260.60;241.67;;;5.30;32.10;;;;;;5025160;28;20238;-70
2023/04/14 02:16:00;;;;;;;238.83;223.30;;;5.30;33.20;;;;;;5016457;28;20414;-69
2023/04/14 02:18:28;;;;;;;251.93;236.27;;;5.20;33.40;;;;;;5016251;28;20425;-69
2023/04/14 02:20:56;;;;;;;274.53;258.77;;;5.20;34.20;;;;;;5028291;28;20999;-69
2023/04/14 02:23:22;;;;;;;454.95;423.90;;;5.20;33.70;;;;;;5036220;28;20440;-70
2023/04/14 02:26:09;;;;;;;218.53;202.80;;;5.10;33.60;;;;;;5036578;28;20213;-69
2023/04/14 02:28:40;;;;;;;227.70;212.77;;;5.00;35.10;;;;;;5034434;28;20167;-70
2023/04/14 02:31:10;;;;;;;151.52;139.15;;;5.00;36.00;;;;;;5035803;28;20678;-70
2023/04/14 02:33:38;;;;;;;108.25;98.00;;;5.00;36.10;;;;;;5034725;28;20188;-69
2023/04/14 02:36:15;;;;;;;230.90;216.33;;;5.00;35.60;;;;;;5035767;28;20730;-70
2023/04/14 02:38:54;;;;;;;247.95;232.80;;;5.00;34.80;;;;;;5036266;28;20411;-70
2023/04/14 02:41:25;;;;;;;188.52;174.68;;;4.90;35.10;;;;;;5036219;28;20212;-69
2023/04/14 02:44:00;;;;;;;236.52;220.18;;;4.80;35.80;;;;;;5035192;28;20249;-69
2023/04/14 02:46:30;;;;;;;286.27;267.33;;;4.70;36.30;;;;;;5033885;28;20327;-69
2023/04/14 02:48:59;;;;;;;203.57;188.93;;;4.60;35.80;;;;;;5014779;28;20177;-69
2023/04/14 02:51:26;;;;;;;303.10;283.85;;;4.60;36.70;;;;;;5030915;28;20212;-69
2023/04/14 02:53:52;;;;;;;205.00;191.30;;;4.50;36.60;;;;;;5035152;28;20181;-69
2023/04/14 02:56:18;;;;;;;236.20;221.07;;;4.50;37.40;;;;;;5035468;28;20180;-69
2023/04/14 02:58:45;;;;;;;319.77;301.27;;;4.40;37.60;;;;;;5033935;28;20182;-69
2023/04/14 03:01:11;;;;;;;271.75;255.70;;;4.40;36.80;;;;;;5034333;28;20756;-69
2023/04/14 03:03:37;;;;;;;179.90;166.70;;;4.30;37.50;;;;;;5031904;28;20190;-69
2023/04/14 03:06:07;;;;;;;212.70;198.40;;;4.10;38.40;;;;;;5034778;28;20184;-69
2023/04/14 03:08:33;;;;;;;241.65;224.90;;;4.00;39.60;;;;;;5034611;28;20169;-69
2023/04/14 03:11:00;;;;;;;181.70;168.50;;;4.00;39.90;;;;;;5034126;28;20224;-69
2023/04/14 03:13:27;;;;;;;176.00;162.70;;;3.90;40.90;;;;;;5033936;28;20683;-69
2023/04/14 03:15:53;;;;;;;208.20;194.50;;;3.90;40.70;;;;;;5014887;28;20181;-69
2023/04/14 03:18:20;;;;;;;159.73;147.32;;;3.90;40.20;;;;;;5014825;28;20169;-69
2023/04/14 03:20:49;;;;;;;92.95;68.82;;;3.90;40.40;;;;;;5024296;28;20178;-69
2023/04/14 03:23:17;;;;;;;237.50;222.15;;;3.80;40.40;;;;;;5034166;28;20186;-69
2023/04/14 03:25:44;;;;;;;117.53;107.05;;;3.80;39.40;;;;;;5034309;28;20249;-69
2023/04/14 03:28:14;;;;;;;184.57;171.23;;;3.70;40.70;;;;;;5034246;28;20172;-69
2023/04/14 03:30:45;;;;;;;181.35;168.73;;;3.70;40.20;;;;;;5032597;28;20203;-69
2023/04/14 03:33:13;;;;;;;211.23;196.70;;;3.70;40.80;;;;;;5033997;28;20590;-69
2023/04/14 03:35:40;;;;;;;223.55;209.10;;;3.50;40.90;;;;;;5034171;28;20167;-69
2023/04/14 03:38:08;;;;;;;134.48;122.90;;;3.50;41.60;;;;;;5034162;28;20203;-69
2023/04/14 03:40:37;;;;;;;198.80;185.13;;;3.40;41.80;;;;;;5033939;28;20172;-69
2023/04/14 03:43:04;;;;;;;156.07;143.98;;;3.40;41.10;;;;;;5033598;28;20200;-69
2023/04/14 03:45:31;;;;;;;153.60;141.45;;;3.40;41.30;;;;;;5034375;28;20171;-69
2023/04/14 03:48:01;;;;;;;221.50;206.70;;;3.30;41.40;;;;;;5033919;28;20172;-68
2023/04/14 03:50:30;;;;;;;124.10;112.85;;;3.20;41.60;;;;;;5032407;28;20206;-69
2023/04/14 03:52:58;;;;;;;168.68;155.73;;;3.10;42.30;;;;;;5033430;28;20697;-68
2023/04/14 03:55:26;;;;;;;163.13;150.55;;;3.10;42.30;;;;;;5021388;28;20597;-68
2023/04/14 03:57:56;;;;;;;91.10;76.43;;;3.00;43.00;;;;;;5013728;28;20647;-68
2023/04/14 04:00:22;;;;;;;151.27;139.55;;;3.00;43.50;;;;;;5016387;28;20188;-68
2023/04/14 04:02:48;;;;;;;141.98;130.18;;;3.00;42.90;;;;;;5033336;28;20656;-68
2023/04/14 04:05:14;;;;;;;115.13;103.78;;;2.90;43.40;;;;;;5033488;28;20246;-68
2023/04/14 04:07:41;;;;;;;230.70;214.20;;;2.90;43.50;;;;;;5027280;28;20177;-69
2023/04/14 04:10:07;;;;;;;86.60;67.35;;;2.80;43.20;;;;;;5028261;28;20175;-68
2023/04/14 04:12:36;;;;;;;158.10;145.38;;;2.70;44.10;;;;;;5033102;28;20210;-69
2023/04/14 04:15:02;;;;;;;103.63;93.15;;;2.70;43.00;;;;;;5016854;28;20183;-68
2023/04/14 04:17:31;;;;;;;149.30;137.47;;;2.60;44.50;;;;;;5012548;28;20271;-68
2023/04/14 04:19:59;;;;;;;109.53;99.10;;;2.50;44.30;;;;;;5014999;28;20700;-68
2023/04/14 04:22:25;;;;;;;121.57;110.10;;;2.50;44.70;;;;;;5032901;28;20328;-69
2023/04/14 04:24:53;;;;;;;114.65;103.68;;;2.50;44.60;;;;;;5031804;28;20211;-68
2023/04/14 04:27:20;;;;;;;89.13;71.47;;;2.40;45.00;;;;;;5016021;28;20188;-69
2023/04/14 04:29:46;;;;;;;142.77;130.68;;;2.40;45.40;;;;;;5013408;28;20261;-69
2023/04/14 04:32:12;;;;;;;116.00;104.90;;;2.40;45.10;;;;;;5046344;22;20297;-71
2023/04/14 04:34:39;;;;;;;177.23;163.93;;;2.30;45.90;;;;;;5013161;28;20234;-71
2023/04/14 04:37:05;;;;;;;135.52;124.45;;;2.40;46.00;;;;;;5013185;28;20773;-71
2023/04/14 04:39:31;;;;;;;110.13;99.10;;;2.40;46.00;;;;;;5013282;28;20325;-71
2023/04/14 04:42:04;;;;;;;145.83;133.80;;;2.40;46.10;;;;;;5012722;28;20739;-71
2023/04/14 04:44:31;;;;;;;87.65;68.43;;;2.50;46.10;;;;;;5011659;28;20183;-71
2023/04/14 04:46:57;;;;;;;147.77;135.68;;;2.50;47.70;;;;;;5008231;28;20180;-71
2023/04/14 04:49:23;;;;;;;157.27;145.33;;;2.60;47.40;;;;;;4993375;28;20197;-71
2023/04/14 04:51:49;;;;;;;112.30;101.47;;;2.70;47.00;;;;;;5010808;28;20473;-69
2023/04/14 04:54:15;;;;;;;144.73;132.30;;;2.70;46.90;;;;;;5012713;28;20179;-69
2023/04/14 04:56:41;;;;;;;168.45;155.55;;;2.70;46.20;;;;;;5012723;28;20641;-69
2023/04/14 04:59:06;;;;;;;99.63;88.47;;;2.70;46.30;;;;;;5012278;28;20183;-70
2023/04/14 05:01:32;;;;;;;236.50;220.00;;;2.80;46.30;;;;;;5012180;28;20834;-71
2023/04/14 05:03:58;;;;;;;121.17;109.77;;;2.80;45.20;;;;;;5012497;28;20716;-70
2023/04/14 05:06:24;;;;;;;174.27;161.07;;;2.70;45.30;;;;;;5012334;28;20178;-70
2023/04/14 05:08:56;;;;;;;171.63;158.82;;;2.70;45.30;;;;;;5012552;28;20210;-69
2023/04/14 05:11:22;;;;;;;96.30;74.10;;;2.70;45.50;;;;;;5012077;28;20263;-70
2023/04/14 05:13:47;;;;;;;119.05;107.60;;;2.70;45.70;;;;;;5011931;28;20202;-70
2023/04/14 05:16:13;;;;;;;125.87;114.13;;;2.70;46.30;;;;;;5010918;28;20247;-70
2023/04/14 05:18:40;;;;;;;152.85;139.98;;;2.80;45.80;;;;;;5012516;28;20263;-70
2023/04/14 05:21:11;;;;;;;169.50;155.73;;;2.80;45.50;;;;;;5012462;28;20238;-70
2023/04/14 05:23:38;;;;;;;119.25;107.70;;;2.90;45.10;;;;;;5011958;28;20185;-70
2023/04/14 05:26:04;;;;;;;94.55;79.70;;;2.90;45.30;;;;;;5011436;28;20179;-70
2023/04/14 05:28:30;;;;;;;138.02;125.85;;;2.90;46.40;;;;;;5012430;28;20179;-70
2023/04/14 05:30:56;;;;;;;159.52;146.93;;;3.30;46.70;;;;;;5011108;28;20215;-71
2023/04/14 05:33:29;;;;;;;253.73;237.03;;;3.90;50.20;;;;;;5012123;28;20272;-70
2023/04/14 05:35:54;;;;;;;219.13;204.02;;;4.70;49.50;;;;;;5012452;28;20170;-70
2023/04/14 05:38:20;;;;;;;247.07;230.83;;;6.00;41.50;;;;;;5012008;28;20186;-70
2023/04/14 05:40:46;;;;;;;248.90;232.50;;;7.10;26.80;;;;;;5010617;28;20562;-71
2023/04/14 05:43:13;;;;;;;247.63;230.97;;;8.40;20.00;;;;;;5012205;28;20516;-68
2023/04/14 05:45:40;;;;;;;234.00;216.70;;;9.20;15.30;;;;;;5012176;28;20418;-72
2023/04/14 05:48:05;;;;;;;339.60;316.67;;;9.80;13.40;;;;;;5012317;28;21050;-72
2023/04/14 05:50:32;;;;;;;343.37;318.53;;;10.70;10.10;;;;;;5012156;28;20513;-71
2023/04/14 05:52:58;;;;;;;241.67;223.43;;;11.90;7.10;;;;;;5012044;28;20250;-72
2023/04/14 05:55:24;;;;;;;339.50;316.97;;;12.40;5.40;;;;;;5011103;28;20426;-72
2023/04/14 05:57:50;;;;;;;499.60;467.03;;;11.80;5.50;;;;;;5013184;28;20258;-71
2023/04/14 06:00:16;;;;;;;455.60;425.87;;;10.80;6.30;;;;;;5012356;28;20184;-71
2023/04/14 06:02:43;;;;;;;105.07;83.70;;;10.10;7.80;;;;;;5013281;28;20469;-72
2023/04/14 06:05:09;;;;;;;82.20;56.00;;;9.40;9.80;;;;;;5012209;28;20448;-73
2023/04/14 06:07:34;;;;;;;149.63;134.47;;;9.00;11.30;;;;;;5011995;28;20852;-73
2023/04/14 06:10:00;;;;;;;403.73;377.73;;;9.00;11.80;;;;;;5010725;28;20186;-73
2023/04/14 06:12:26;;;;;;;227.63;210.30;;;9.10;12.40;;;;;;5010139;28;20210;-73
2023/04/14 06:14:55;;;;;;;90.10;53.63;;;8.80;12.20;;;;;;5011909;28;20766;-72
2023/04/14 06:17:21;;;;;;;342.87;322.40;;;8.90;13.70;;;;;;5011841;28;20190;-73
2023/04/14 06:19:47;;;;;;;96.50;62.07;;;9.60;12.80;;;;;;5011557;28;20482;-75
2023/04/14 06:22:18;;;;;;;224.17;207.93;;;10.50;10.00;;;;;;5011680;28;20599;-73
2023/04/14 06:24:44;;;;;;;276.00;257.13;;;11.30;9.30;;;;;;5012246;28;20435;-72
2023/04/14 06:27:10;;;;;;;412.53;380.63;;;13.40;3.70;;;;;;5010531;28;20426;-72
2023/04/14 06:29:36;;;;;;;322.37;297.87;;;15.70;1.00;;;;;;5011983;28;20780;-72
2023/04/14 06:32:01;;;;;;;260.33;238.50;;;17.60;1.00;;;;;;5011496;28;20268;-71
2023/04/14 06:34:27;;;;;;;206.97;191.63;;;19.10;1.00;;;;;;5010605;28;20434;-73
2023/04/14 06:36:52;;;;;;;416.17;384.07;;;20.40;1.00;;;;;;5010905;28;20191;-73
2023/04/14 06:39:20;;;;;;;519.13;480.27;;;21.30;1.00;;;;;;5014230;28;20629;-72
2023/04/14 06:41:46;;;;;;;624.90;577.73;;;22.10;1.00;;;;;;5015100;28;20293;-72
2023/04/14 06:44:11;;;;;;;496.37;459.83;;;22.70;1.00;;;;;;5013929;28;20434;-73
2023/04/14 06:46:38;;;;;;;669.43;620.47;;;23.40;1.00;;;;;;5013972;28;20271;-73
2023/04/14 06:49:04;;;;;;;597.07;554.43;;;23.70;1.00;;;;;;5015108;28;20175;-72
2023/04/14 06:51:31;;;;;;;360.03;339.53;;;21.50;1.00;;;;;;5015037;28;20438;-72
2023/04/14 06:54:00;;;;;;;210.73;195.47;;;18.60;1.00;;;;;;5014951;28;20266;-71
2023/04/14 06:56:26;;;;;;;513.30;478.30;;;17.20;1.00;;;;;;5009995;28;20446;-73
2023/04/14 06:58:51;;;;;;;633.13;586.10;;;15.90;1.00;;;;;;5009501;28;20419;-73
2023/04/14 07:01:17;;;;;;;415.33;384.37;;;14.90;1.00;;;;;;5010941;28;20463;-74
2023/04/14 07:03:43;;;;;;;202.90;185.43;;;14.10;1.00;;;;;;5011513;28;20598;-72
2023/04/14 07:06:15;;;;;;;163.17;149.70;;;13.80;1.00;;;;;;5010742;28;20219;-73
2023/04/14 07:08:41;;;;;;;476.37;442.30;;;13.70;1.00;;;;;;5010666;28;20176;-72
2023/04/14 07:11:09;;;;;;;249.90;229.57;;;14.00;1.00;;;;;;5011434;28;20568;-72
2023/04/14 07:13:35;;;;;;;357.57;330.40;;;14.80;1.00;;;;;;5010633;28;20183;-71
2023/04/14 07:16:02;;;;;;;274.37;253.70;;;16.90;1.00;;;;;;5010713;28;20425;-71
2023/04/14 07:18:28;;;;;;;376.70;350.07;;;18.70;1.00;;;;;;5010597;28;20505;-73
2023/04/14 07:20:58;;;;;;;500.40;465.27;;;21.00;1.00;;;;;;5010332;28;20523;-72
2023/04/14 07:23:27;;;;;;;510.93;474.37;;;21.90;1.00;;;;;;4989275;28;20798;-72
2023/04/14 07:25:58;;;;;;;587.37;543.67;;;23.80;1.00;;;;;;4990797;28;20432;-73
2023/04/14 07:28:25;;;;;;;608.73;564.37;;;24.90;1.00;;;;;;5008820;28;20431;-74
2023/04/14 07:30:51;;;;;;;535.33;497.70;;;24.50;1.00;;;;;;5010748;28;20419;-73
2023/04/14 07:33:18;;;;;;;503.47;469.83;;;23.10;1.00;;;;;;5009344;28;20520;-73
2023/04/14 07:35:48;;;;;;;574.53;533.30;;;23.80;1.00;;;;;;5008508;28;20494;-74
2023/04/14 07:38:14;;;;;;;543.57;506.87;;;22.30;1.00;;;;;;4992986;28;20507;-71
2023/04/14 07:40:40;;;;;;;527.57;490.03;;;;;;;;;;5002787;28;20499;-71
2023/04/14 07:43:06;;;;;;;314.77;297.13;;;19.60;1.00;;;;;;5013686;28;20200;-70
2023/04/14 07:45:32;;;;;;;371.93;345.40;;;18.90;1.00;;;;;;5013363;28;20505;-71
2023/04/14 07:47:59;;;;;;;378.23;352.00;;;19.10;1.00;;;;;;5013352;28;20597;-70
2023/04/14 07:50:27;;;;;;;430.83;400.50;;;19.30;1.00;;;;;;5004286;28;20634;-70
2023/04/14 07:52:53;;;;;;;544.97;506.63;;;20.00;1.00;;;;;;5008366;28;20452;-71
2023/04/14 07:55:18;;;;;;;523.47;485.63;;;21.10;1.00;;;;;;5007332;28;20489;-70
2023/04/14 07:57:45;;;;;;;526.40;490.20;;;21.80;1.00;;;;;;5003679;28;20518;-70
2023/04/14 08:00:11;;;;;;;587.80;545.77;;;22.20;1.00;;;;;;5002018;28;20292;-72
2023/04/14 08:02:37;;;;;;;474.73;440.73;;;22.20;1.00;;;;;;5009805;28;20481;-72
2023/04/14 08:05:04;;;;;;;538.63;503.10;;;22.50;1.00;;;;;;5013154;28;20507;-72
2023/04/14 08:07:30;;;;;;;531.73;493.83;;;;;;;;;;5012179;28;20596;-71
2023/04/14 08:09:56;;;;;;;532.27;495.60;;;24.00;1.00;;;;;;5013749;28;20430;-70
2023/04/14 08:12:23;;;;;;;506.37;472.97;;;22.50;1.00;;;;;;5012961;28;20451;-71
2023/04/14 08:14:48;;;;;;;524.83;487.33;;;23.50;1.00;;;;;;5013254;28;20187;-71
2023/04/14 08:17:14;;;;;;;552.87;514.00;;;24.10;1.00;;;;;;5012796;28;20793;-71
2023/04/14 08:19:40;;;;;;;538.67;502.83;;;23.80;1.00;;;;;;5013128;28;20271;-70
2023/04/14 08:22:06;;;;;;;401.67;373.50;;;23.70;1.00;;;;;;5013008;28;20462;-72
2023/04/14 08:24:31;;;;;;;535.47;498.77;;;25.50;1.00;;;;;;4996255;28;20185;-70
2023/04/14 08:26:58;;;;;;;566.70;526.60;;;26.50;1.00;;;;;;4995541;28;20319;-70
2023/04/14 08:29:23;;;;;;;623.90;580.83;;;26.70;1.00;;;;;;5014621;28;20182;-71
2023/04/14 08:31:49;;;;;;;525.30;490.53;;;27.10;1.00;;;;;;5013765;28;20545;-71
2023/04/14 08:34:14;;;;;;;618.43;574.73;;;26.90;1.00;;;;;;5015499;28;20176;-71
2023/04/14 08:36:40;;;;;;;663.60;614.63;;;;;;;;;;5015670;28;20234;-72
2023/04/14 08:39:06;;;;;;;575.97;535.27;;;27.00;1.00;;;;;;5016674;28;20543;-70
2023/04/14 08:41:37;;;;;;;636.20;593.10;;;;;;;;;;5016860;28;20462;-70
2023/04/14 08:44:04;;;;;;;538.43;500.20;;;;;;;;;;5018136;28;20182;-71
2023/04/14 08:46:31;;;;;;;558.87;519.50;;;;;;;;;;5019890;28;20422;-70
2023/04/14 08:49:06;;;;;;;527.93;492.20;;;;;;;;;;5016321;28;20423;-70
2023/04/14 08:51:36;;;;;;;486.27;454.40;;;;;;;;;;5013721;28;20431;-70
2023/04/14 08:54:03;;;;;;;497.57;465.20;;;;;;;;;;5014358;28;20414;-71
2023/04/14 08:56:32;;;;;;;440.90;411.50;;;;;;;;;;5013623;28;20494;-71
2023/04/14 08:59:00;;;;;;;460.97;429.77;;;;;;;;;;5013431;28;20416;-70
2023/04/14 09:01:31;;;;;;;330.67;308.70;;;25.70;1.00;;;;;;5013554;28;20538;-73
2023/04/14 09:03:57;;;;;;;305.03;284.77;;;14.60;1.00;;;;;;5013507;28;20422;-72
2023/04/14 09:06:23;;;;;;;358.73;333.30;;;13.90;1.00;;;;;;5013739;28;20415;-70
2023/04/14 09:08:49;;;;;;;437.73;410.57;;;13.10;1.00;;;;;;5012912;28;20417;-70
2023/04/14 09:11:15;;;;;;;443.27;412.87;;;12.70;1.00;;;;;;5012500;28;20297;-70
2023/04/14 09:13:41;;;;;;;277.70;258.53;;;;;;;;;;5012214;28;20183;-70
2023/04/14 09:16:07;;;;;;;445.27;415.63;;;11.90;9.00;;;;;;5012619;28;20412;-70
2023/04/14 09:18:33;;;;;;;476.70;443.93;;;11.90;8.40;;;;;;5012624;28;20469;-70
2023/04/14 09:21:02;;;;;;;176.30;162.67;;;11.90;8.80;;;;;;5012310;28;20826;-70
2023/04/14 09:23:29;;;;;;;280.93;260.93;;;11.80;6.40;;;;;;5012059;28;20175;-70
2023/04/14 09:25:54;;;;;;;224.83;208.37;;;11.70;6.70;;;;;;5012976;28;20426;-72
2023/04/14 09:28:20;;;;;;;388.87;361.53;;;11.70;6.40;;;;;;5010844;28;21049;-70
2023/04/14 09:30:46;;;;;;;405.43;378.90;;;11.60;6.30;;;;;;5010914;28;20172;-69
2023/04/14 09:33:19;;;;;;;179.47;165.23;;;11.70;4.50;;;;;;5011962;28;20290;-69
2023/04/14 09:35:49;;;;;;;230.00;212.40;;;11.70;5.70;;;;;;5011988;28;20176;-69
2023/04/14 09:38:36;;;;;;;241.03;223.33;;;11.70;5.70;;;;;;5012088;28;20442;-70
2023/04/14 09:41:06;;;;;;;274.13;254.47;;;11.80;4.80;;;;;;5011905;28;20461;-69
2023/04/14 09:43:32;;;;;;;321.17;299.30;;;11.90;7.30;;;;;;5010612;28;20430;-70
2023/04/14 09:46:04;;;;;;;375.10;350.57;;;12.10;5.50;;;;;;5011045;28;20702;-69
2023/04/14 09:48:30;;;;;;;191.00;176.17;;;12.20;3.00;;;;;;5011910;28;20421;-69
2023/04/14 09:51:08;;;;;;;316.77;294.37;;;12.20;1.00;;;;;;5010516;28;20421;-69
2023/04/14 09:53:35;;;;;;;193.77;176.43;;;12.10;1.00;;;;;;5012092;28;20395;-69
2023/04/14 09:56:04;;;;;;;283.33;263.77;;;11.80;1.00;;;;;;5012022;28;20473;-70
2023/04/14 09:58:37;;;;;;;254.23;235.10;;;11.80;1.00;;;;;;5012037;28;20439;-70
2023/04/14 10:01:12;;;;;;;168.63;154.37;;;11.80;1.00;;;;;;5011423;28;20652;-69
2023/04/14 10:03:40;;;;;;;329.67;306.87;;;12.00;1.00;;;;;;5011643;28;20422;-69
2023/04/14 10:06:15;;;;;;;274.20;255.03;;;12.10;1.00;;;;;;5012084;28;20413;-69
2023/04/14 10:08:43;;;;;;;204.27;187.00;;;12.20;1.00;;;;;;5012205;28;20413;-71
2023/04/14 10:11:25;;;;;;;420.37;390.40;;;12.50;3.50;;;;;;5012002;28;20812;-71
2023/04/14 10:13:53;;;;;;;310.23;288.87;;;12.80;1.00;;;;;;5015576;28;20428;-70
2023/04/14 10:16:20;;;;;;;300.60;279.47;;;13.00;1.00;;;;;;5015654;28;20476;-72
2023/04/14 10:18:46;;;;;;;371.80;345.07;;;13.30;1.00;;;;;;4998988;28;20513;-70
2023/04/14 10:21:13;;;;;;;331.83;309.90;;;13.50;1.00;;;;;;4995564;28;20420;-71
2023/04/14 10:23:40;;;;;;;461.90;429.30;;;13.60;1.00;;;;;;4998607;28;20536;-70
2023/04/14 10:26:10;;;;;;;508.00;469.37;;;13.70;1.00;;;;;;5014610;28;20434;-70
2023/04/14 10:28:39;;;;;;;395.87;371.23;;;13.70;1.00;;;;;;5015203;28;21123;-70
2023/04/14 10:31:31;;;;;;;366.33;341.57;;;14.00;1.00;;;;;;4997881;28;20418;-70
2023/04/14 10:33:57;;;;;;;241.83;223.43;;;14.10;1.00;;;;;;4989282;28;20800;-70
2023/04/14 10:36:28;;;;;;;286.40;266.27;;;14.10;1.00;;;;;;4995777;28;20416;-70
2023/04/14 10:38:59;;;;;;;399.03;372.20;;;14.50;1.00;;;;;;4995736;28;20726;-70
2023/04/14 10:41:25;;;;;;;388.83;361.20;;;14.60;1.00;;;;;;5008685;28;20819;-70
2023/04/14 10:43:50;;;;;;;443.47;412.50;;;15.20;1.00;;;;;;5015056;28;20423;-70
2023/04/14 10:46:16;;;;;;;265.27;245.87;;;15.50;1.00;;;;;;5015322;28;20176;-70
2023/04/14 10:48:45;;;;;;;332.17;311.43;;;15.90;1.00;;;;;;5015200;28;20262;-73
2023/04/14 10:51:11;;;;;;;587.07;546.20;;;15.80;1.00;;;;;;5014512;28;20187;-72
2023/04/14 10:53:54;;;;;;;401.93;373.47;;;16.00;1.00;;;;;;5014433;28;20415;-73
2023/04/14 10:56:20;;;;;;;552.53;511.40;;;16.30;1.00;;;;;;5018472;28;20179;-74
2023/04/14 10:58:57;;;;;;;349.57;324.27;;;16.50;1.00;;;;;;5015141;28;21061;-68
2023/04/14 11:01:30;;;;;;;404.93;378.07;;;16.30;1.00;;;;;;5014842;28;20909;-69
2023/04/14 11:04:09;;;;;;;314.07;293.57;;;15.90;1.00;;;;;;4995384;28;20431;-69
2023/04/14 11:06:47;;;;;;;361.10;337.30;;;15.90;1.00;;;;;;4995512;28;20897;-69
2023/04/14 11:09:31;;;;;;;459.37;427.43;;;15.70;1.00;;;;;;4995139;28;20426;-69
2023/04/14 11:12:05;;;;;;;286.03;266.73;;;15.20;1.00;;;;;;4994899;28;20443;-69
2023/04/14 11:14:32;;;;;;;407.63;380.80;;;15.10;1.00;;;;;;5005821;28;20421;-69
2023/04/14 11:17:03;;;;;;;514.67;480.60;;;14.80;1.00;;;;;;5014792;28;20632;-69
2023/04/14 11:19:30;;;;;;;473.60;440.50;;;14.70;1.00;;;;;;5013201;28;20484;-69
2023/04/14 11:21:56;;;;;;;375.43;349.50;;;14.60;1.00;;;;;;5014008;28;20535;-69
2023/04/14 11:24:25;;;;;;;489.70;455.50;;;14.70;1.00;;;;;;5013493;28;20996;-69
2023/04/14 11:26:54;;;;;;;413.80;386.10;;;15.00;1.00;;;;;;5014477;28;20670;-68
2023/04/14 11:29:21;;;;;;;427.03;397.77;;;15.10;1.00;;;;;;5014580;28;20411;-68
2023/04/14 11:32:01;;;;;;;399.53;372.67;;;15.20;1.00;;;;;;5014076;28;20997;-69
2023/04/14 11:34:27;;;;;;;428.70;399.77;;;15.20;1.00;;;;;;5013111;28;20434;-69
2023/04/14 11:36:53;;;;;;;402.93;375.63;;;15.10;1.00;;;;;;5014292;28;20753;-69
2023/04/14 11:39:19;;;;;;;460.43;429.77;;;15.30;1.00;;;;;;5014243;28;20415;-70
2023/04/14 11:41:46;;;;;;;593.13;550.60;;;15.30;1.00;;;;;;5012424;28;20468;-70
2023/04/14 11:44:18;;;;;;;569.00;528.50;;;16.10;1.00;;;;;;5013875;28;20980;-69
2023/04/14 11:46:44;;;;;;;338.17;315.77;;;16.20;1.00;;;;;;5010437;28;20416;-69
2023/04/14 11:49:10;;;;;;;452.70;423.47;;;16.30;1.00;;;;;;4994611;28;20412;-69
2023/04/14 11:51:35;;;;;;;355.70;331.83;;;16.40;1.00;;;;;;5009301;28;20206;-69
2023/04/14 11:54:02;;;;;;;498.03;461.37;;;16.30;1.00;;;;;;5013859;28;20541;-69
2023/04/14 11:56:30;;;;;;;549.70;511.60;;;16.40;1.00;;;;;;5013958;28;20172;-70
2023/04/14 11:59:04;;;;;;;307.37;286.67;;;16.10;1.00;;;;;;5014200;28;20690;-70
2023/04/14 12:01:30;;;;;;;358.13;333.70;;;15.90;1.00;;;;;;5013516;28;20884;-69
2023/04/14 12:03:56;;;;;;;428.03;399.33;;;15.50;1.00;;;;;;5012283;28;20446;-69
2023/04/14 12:06:23;;;;;;;491.07;456.67;;;15.60;1.00;;;;;;5013716;28;20411;-69
2023/04/14 12:08:53;;;;;;;360.47;336.03;;;15.30;1.00;;;;;;5013566;28;20531;-69
2023/04/14 12:11:19;;;;;;;399.23;373.93;;;15.20;1.00;;;;;;5009897;28;20438;-69
2023/04/14 12:13:46;;;;;;;257.83;240.80;;;15.20;1.00;;;;;;5011948;28;20482;-69
2023/04/14 12:16:13;;;;;;;351.67;326.70;;;15.30;1.00;;;;;;5013268;28;20176;-69
2023/04/14 12:18:39;;;;;;;379.13;352.10;;;15.20;1.00;;;;;;5012868;28;20797;-69
2023/04/14 12:21:05;;;;;;;387.10;361.33;;;15.40;1.00;;;;;;5010840;28;20501;-72
2023/04/14 12:23:35;;;;;;;357.47;332.90;;;15.30;1.00;;;;;;5012152;28;20419;-70
2023/04/14 12:26:01;;;;;;;466.17;434.00;;;15.50;1.00;;;;;;5006127;28;20199;-70